METAR Data
IDs: Format: Raw Decoded Include TAF

Data at: 0027 UTC 19 Oct 2019

KBEH 182353Z AUTO 09003KT 10SM CLR 07/04 A2997 RMK AO2 SLP151 T00720044 10144 20072 56014
KBEH 182253Z AUTO 13003KT 10SM CLR 12/04 A2997 RMK AO2 SLP152 T01220039
KBEH 182153Z AUTO 16006KT 10SM CLR 13/04 A2999 RMK AO2 SLP157 T01330039
KBEH 182053Z AUTO 18005KT 10SM CLR 14/04 A3001 RMK AO2 SLP164 T01390039 56015
KBEH 181953Z AUTO 17007KT 10SM CLR 14/03 A3001 RMK AO2 SLP165 T01390033
KBEH 181853Z AUTO VRB04KT 10SM CLR 13/03 A3003 RMK AO2 SLP172 T01330033
KBEH 181753Z AUTO 00000KT 10SM CLR 13/03 A3005 RMK AO2 SLP179 T01280028 10133 20028 58016
KBEH 181653Z AUTO VRB06KT 10SM CLR 13/04 A3007 RMK AO2 SLP185 T01280039
KBEH 181553Z AUTO 11006KT 10SM CLR 12/03 A3009 RMK AO2 SLP191 T01170028
KBEH 181453Z AUTO 14006KT 10SM CLR 10/03 A3010 RMK AO2 SLP196 T01000033 50004
KBEH 181353Z AUTO 14006KT 10SM CLR 08/04 A3010 RMK AO2 SLP197 T00830039
KBEH 181253Z AUTO 11003KT 10SM SCT031 04/03 A3010 RMK AO2 SLP196 T00440033
KBEH 181153Z AUTO 00000KT 10SM BKN031 03/02 A3009 RMK AO2 SLP193 T00330022 10083 20033 53007
KBEH 181146Z AUTO 00000KT 3SM BR OVC031 03/03 A3009 RMK AO2 T00330028
KBEH 181134Z AUTO 00000KT 1 3/4SM BR BKN031 03/03 A3009 RMK AO2 VIS 1V5 T00330028
KBEH 181053Z AUTO 00000KT 10SM FEW032 04/03 A3008 RMK AO2 SLP190 T00440028
KBEH 180953Z AUTO 00000KT 10SM OVC033 06/04 A3007 RMK AO2 SLP187 T00610044
KBEH 180853Z AUTO 00000KT 10SM OVC032 07/05 A3007 RMK AO2 SLP185 T00720050 53007
KBEH 180753Z AUTO 00000KT 10SM OVC033 06/04 A3006 RMK AO2 SLP182 T00610044
KBEH 180653Z AUTO 00000KT 10SM OVC034 08/05 A3004 RMK AO2 SLP176 T00780050
KBEH 180553Z AUTO 00000KT 10SM OVC033 08/05 A3005 RMK AO2 SLP177 T00830050 10094 20078 53002
KBEH 180453Z AUTO 00000KT 10SM OVC034 08/04 A3004 RMK AO2 SLP174 T00830044 401110078
KBEH 180353Z AUTO 09003KT 10SM OVC034 09/04 A3004 RMK AO2 SLP175 T00890039
KBEH 180253Z AUTO VRB03KT 10SM OVC035 09/02 A3004 RMK AO2 SLP175 T00940022 51007
KBEH 180153Z AUTO VRB03KT 10SM OVC033 09/03 A3003 RMK AO2 SLP172 T00940028
KBEH 180053Z AUTO VRB04KT 10SM OVC031 09/03 A3003 RMK AO2 SLP171 T00940028
KBEH 172353Z AUTO 10SM OVC033 09/03 A3002 RMK AO2 SLP168 T00940028 10111 20094 51007
KBEH 172253Z AUTO 32007KT 10SM SCT029 OVC033 09/03 A3002 RMK AO2 SLP167 T00940033
KBEH 172208Z AUTO VRB05KT 10SM SCT028 OVC034 09/03 A3001 RMK AO2 T00940033
KBEH 172153Z AUTO 32009G15KT 10SM BKN027 OVC034 09/04 A3001 RMK AO2 SLP164 T00940039
KBEH 172136Z AUTO 32005KT 10SM BKN027 OVC034 10/04 A3001 RMK AO2 T01000039
KBEH 172053Z AUTO 31008KT 10SM FEW025 BKN034 11/04 A3000 RMK AO2 SLP161 T01060039 55005
KBEH 171953Z AUTO 33009G18KT 310V010 10SM FEW027 11/03 A2999 RMK AO2 SLP158 T01060033
KBEH 171853Z AUTO VRB06KT 10SM FEW028 SCT120 11/03 A3000 RMK AO2 SLP162 T01060033
KBEH 171753Z AUTO 33008G14KT 300V010 10SM SCT029 OVC037 10/04 A3001 RMK AO2 SLP166 T01000039 10106 20089 50000
KBEH 171703Z AUTO 34008KT 310V010 10SM SCT028 BKN035 11/04 A3002 RMK AO2 T01060044
KBEH 171653Z AUTO 10SM BKN028 OVC035 11/04 A3002 RMK AO2 SLP166 T01060044
KBEH 171553Z AUTO 33007KT 10SM SCT028 BKN036 10/04 A3002 RMK AO2 SLP168 T01000039
KBEH 171503Z AUTO 31009KT 10SM SCT030 OVC036 10/03 A3001 RMK AO2 T01000033
KBEH 171453Z AUTO 31006KT 10SM BKN028 BKN035 10/03 A3001 RMK AO2 SLP165 T01000033 51014
KBEH 171353Z AUTO 32007G17KT 290V020 10SM SCT030 10/03 A3000 RMK AO2 SLP160 T01000028
KBEH 171253Z AUTO 31005KT 10SM FEW025 BKN032 OVC120 09/03 A2999 RMK AO2 SLP157 T00890033